This is the latest recevied weather packets stored in our database for station/object xx2mm-13. If no packets are shown the sender has not sent any weather packets the latest 1 day(s).
| Time | Temp. | Humidity | Pressure | Rain* | Wind** | Luminosity | Snow |
|---|---|---|---|---|---|---|---|
| 1778156566 | 13.33° C | 50% | 1012.4 hPa | - | - | - | - |
| 1778156370 | 13.33° C | 50% | 1012.4 hPa | - | - | - | - |
| 1778155781 | 13.33° C | 50% | 1012.3 hPa | - | - | - | - |
| 1778155495 | 13.33° C | 50% | 1012.3 hPa | - | - | - | - |
| 1778154367 | 13.33° C | 51% | 1012.1 hPa | - | - | - | - |
| 1778154073 | 13.33° C | 50% | 1012 hPa | - | - | - | - |
| 1778153876 | 13.33° C | 51% | 1012 hPa | - | - | - | - |
| 1778153685 | 13.33° C | 51% | 1012 hPa | - | - | - | - |
| 1778153494 | 13.89° C | 51% | 1011.9 hPa | - | - | - | - |
| 1778152525 | 13.33° C | 49% | 1011.8 hPa | - | - | - | - |
| 1778152430 | 13.33° C | 49% | 1011.8 hPa | - | - | - | - |
| 1778152239 | 13.33° C | 49% | 1011.7 hPa | - | - | - | - |
| 1778152047 | 13.33° C | 49% | 1011.7 hPa | - | - | - | - |
| 1778151856 | 13.33° C | 50% | 1011.7 hPa | - | - | - | - |
| 1778151758 | 13.33° C | 50% | 1011.6 hPa | - | - | - | - |
| 1778151593 | 13.33° C | 50% | 1011.6 hPa | - | - | - | - |
| 1778151485 | 13.33° C | 50% | 1011.6 hPa | - | - | - | - |
| 1778151190 | 13.33° C | 51% | 1011.5 hPa | - | - | - | - |
| 1778150713 | 12.78° C | 55% | 1011.4 hPa | - | - | - | - |
| 1778150522 | 13.33° C | 58% | 1011.4 hPa | - | - | - | - |
| 1778150235 | 13.89° C | 82% | 1011.3 hPa | - | - | - | - |
| 1778150044 | 12.22° C | 52% | 1011.3 hPa | - | - | - | - |
| 1778149758 | 12.22° C | 52% | 1011.2 hPa | - | - | - | - |
| 1778149662 | 12.22° C | 52% | 1011.2 hPa | - | - | - | - |
| 1778149567 | 12.22° C | 53% | 1011.2 hPa | - | - | - | - |
* Rain since midnight (hover to see other rain measurements)
** Current wind speed in m/s (hover to see current wind gust speed)